sensor_id;sensor_type;location;lat;lon;timestamp;P1;durP1;ratioP1;P2;durP2;ratioP2
8636;SDS011;4356;49.068;8.658;2023-03-08T00:00:06;5.00;;;4.60;;
8636;SDS011;4356;49.068;8.658;2023-03-08T00:02:36;1.90;;;1.80;;
8636;SDS011;4356;49.068;8.658;2023-03-08T00:05:03;1.90;;;1.87;;
8636;SDS011;4356;49.068;8.658;2023-03-08T00:07:29;2.40;;;2.30;;
8636;SDS011;4356;49.068;8.658;2023-03-08T00:09:54;2.93;;;2.73;;
8636;SDS011;4356;49.068;8.658;2023-03-08T00:12:20;3.73;;;3.43;;
8636;SDS011;4356;49.068;8.658;2023-03-08T00:14:47;2.57;;;2.47;;
8636;SDS011;4356;49.068;8.658;2023-03-08T00:17:13;2.13;;;1.87;;
8636;SDS011;4356;49.068;8.658;2023-03-08T00:19:40;1.80;;;1.70;;
8636;SDS011;4356;49.068;8.658;2023-03-08T00:22:05;2.07;;;1.87;;
8636;SDS011;4356;49.068;8.658;2023-03-08T00:24:31;5.10;;;4.80;;
8636;SDS011;4356;49.068;8.658;2023-03-08T00:26:57;5.27;;;4.87;;
8636;SDS011;4356;49.068;8.658;2023-03-08T00:29:22;2.50;;;2.40;;
8636;SDS011;4356;49.068;8.658;2023-03-08T00:31:48;2.57;;;2.37;;
8636;SDS011;4356;49.068;8.658;2023-03-08T00:34:14;3.43;;;3.13;;
8636;SDS011;4356;49.068;8.658;2023-03-08T00:36:40;3.20;;;3.00;;
8636;SDS011;4356;49.068;8.658;2023-03-08T00:39:08;4.47;;;4.07;;
8636;SDS011;4356;49.068;8.658;2023-03-08T00:41:35;1.80;;;1.70;;
8636;SDS011;4356;49.068;8.658;2023-03-08T00:44:01;3.07;;;2.87;;
8636;SDS011;4356;49.068;8.658;2023-03-08T00:46:27;5.00;;;4.67;;
8636;SDS011;4356;49.068;8.658;2023-03-08T00:48:55;2.43;;;2.30;;
8636;SDS011;4356;49.068;8.658;2023-03-08T00:51:22;3.20;;;3.00;;
8636;SDS011;4356;49.068;8.658;2023-03-08T00:53:47;4.80;;;3.87;;
8636;SDS011;4356;49.068;8.658;2023-03-08T00:56:13;1.50;;;1.40;;
8636;SDS011;4356;49.068;8.658;2023-03-08T00:58:39;3.90;;;2.93;;
8636;SDS011;4356;49.068;8.658;2023-03-08T01:01:07;5.60;;;5.20;;
8636;SDS011;4356;49.068;8.658;2023-03-08T01:03:37;5.60;;;5.07;;
8636;SDS011;4356;49.068;8.658;2023-03-08T01:06:06;2.20;;;1.90;;
8636;SDS011;4356;49.068;8.658;2023-03-08T01:08:34;3.20;;;3.00;;
8636;SDS011;4356;49.068;8.658;2023-03-08T01:11:00;0.70;;;0.70;;
8636;SDS011;4356;49.068;8.658;2023-03-08T01:13:29;3.13;;;2.87;;
8636;SDS011;4356;49.068;8.658;2023-03-08T01:15:57;2.03;;;1.93;;
8636;SDS011;4356;49.068;8.658;2023-03-08T01:18:23;2.00;;;1.90;;
8636;SDS011;4356;49.068;8.658;2023-03-08T01:20:59;1.90;;;1.83;;
8636;SDS011;4356;49.068;8.658;2023-03-08T01:23:27;5.37;;;4.97;;
8636;SDS011;4356;49.068;8.658;2023-03-08T01:26:00;4.67;;;4.27;;
8636;SDS011;4356;49.068;8.658;2023-03-08T01:28:27;6.00;;;5.50;;
8636;SDS011;4356;49.068;8.658;2023-03-08T01:30:53;7.07;;;4.07;;
8636;SDS011;4356;49.068;8.658;2023-03-08T01:33:24;5.50;;;4.77;;
8636;SDS011;4356;49.068;8.658;2023-03-08T01:35:50;5.00;;;4.60;;
8636;SDS011;4356;49.068;8.658;2023-03-08T01:38:15;5.17;;;4.87;;
8636;SDS011;4356;49.068;8.658;2023-03-08T01:40:41;5.00;;;4.50;;
8636;SDS011;4356;49.068;8.658;2023-03-08T01:43:12;5.67;;;5.00;;
8636;SDS011;4356;49.068;8.658;2023-03-08T01:46:04;5.90;;;5.30;;
8636;SDS011;4356;49.068;8.658;2023-03-08T01:51:52;4.87;;;4.47;;
8636;SDS011;4356;49.068;8.658;2023-03-08T01:54:22;3.23;;;2.97;;
8636;SDS011;4356;49.068;8.658;2023-03-08T01:56:58;4.77;;;4.37;;
8636;SDS011;4356;49.068;8.658;2023-03-08T01:59:28;5.43;;;4.93;;
8636;SDS011;4356;49.068;8.658;2023-03-08T02:01:56;4.80;;;4.50;;
8636;SDS011;4356;49.068;8.658;2023-03-08T02:04:23;4.97;;;4.57;;
8636;SDS011;4356;49.068;8.658;2023-03-08T02:06:50;4.20;;;3.90;;
8636;SDS011;4356;49.068;8.658;2023-03-08T02:09:16;4.80;;;4.40;;
8636;SDS011;4356;49.068;8.658;2023-03-08T02:11:42;4.67;;;4.37;;
8636;SDS011;4356;49.068;8.658;2023-03-08T02:14:08;4.60;;;4.20;;
8636;SDS011;4356;49.068;8.658;2023-03-08T02:16:34;5.00;;;4.60;;
8636;SDS011;4356;49.068;8.658;2023-03-08T02:19:01;5.27;;;4.77;;
8636;SDS011;4356;49.068;8.658;2023-03-08T02:21:30;5.23;;;4.73;;
8636;SDS011;4356;49.068;8.658;2023-03-08T02:24:15;5.30;;;4.80;;
8636;SDS011;4356;49.068;8.658;2023-03-08T02:26:43;4.80;;;4.40;;
8636;SDS011;4356;49.068;8.658;2023-03-08T02:29:10;4.30;;;4.00;;
8636;SDS011;4356;49.068;8.658;2023-03-08T02:31:35;4.90;;;4.50;;
8636;SDS011;4356;49.068;8.658;2023-03-08T02:34:01;3.33;;;3.07;;
8636;SDS011;4356;49.068;8.658;2023-03-08T02:36:26;3.00;;;2.80;;
8636;SDS011;4356;49.068;8.658;2023-03-08T02:38:52;4.67;;;4.33;;
8636;SDS011;4356;49.068;8.658;2023-03-08T02:41:17;4.20;;;3.83;;
8636;SDS011;4356;49.068;8.658;2023-03-08T02:43:44;5.23;;;4.50;;
8636;SDS011;4356;49.068;8.658;2023-03-08T02:46:10;4.87;;;4.37;;
8636;SDS011;4356;49.068;8.658;2023-03-08T02:48:37;5.00;;;4.60;;
8636;SDS011;4356;49.068;8.658;2023-03-08T02:51:02;5.23;;;4.73;;
8636;SDS011;4356;49.068;8.658;2023-03-08T02:53:28;4.83;;;4.50;;
8636;SDS011;4356;49.068;8.658;2023-03-08T02:55:54;4.67;;;4.30;;
8636;SDS011;4356;49.068;8.658;2023-03-08T02:58:19;4.63;;;4.33;;
8636;SDS011;4356;49.068;8.658;2023-03-08T03:00:45;4.57;;;4.17;;
8636;SDS011;4356;49.068;8.658;2023-03-08T03:03:10;5.00;;;4.50;;
8636;SDS011;4356;49.068;8.658;2023-03-08T03:05:40;4.80;;;4.33;;
8636;SDS011;4356;49.068;8.658;2023-03-08T03:08:07;2.80;;;2.60;;
8636;SDS011;4356;49.068;8.658;2023-03-08T03:10:33;4.33;;;4.00;;
8636;SDS011;4356;49.068;8.658;2023-03-08T03:13:00;4.90;;;4.60;;
8636;SDS011;4356;49.068;8.658;2023-03-08T03:15:25;5.53;;;5.00;;
8636;SDS011;4356;49.068;8.658;2023-03-08T03:17:51;4.60;;;4.20;;
8636;SDS011;4356;49.068;8.658;2023-03-08T03:20:17;5.40;;;4.70;;
8636;SDS011;4356;49.068;8.658;2023-03-08T03:22:42;5.87;;;4.67;;
8636;SDS011;4356;49.068;8.658;2023-03-08T03:25:08;4.73;;;4.43;;
8636;SDS011;4356;49.068;8.658;2023-03-08T03:27:35;4.50;;;4.20;;
8636;SDS011;4356;49.068;8.658;2023-03-08T03:30:00;4.40;;;4.10;;
8636;SDS011;4356;49.068;8.658;2023-03-08T03:32:26;4.77;;;4.37;;
8636;SDS011;4356;49.068;8.658;2023-03-08T03:34:51;4.63;;;4.33;;
8636;SDS011;4356;49.068;8.658;2023-03-08T03:37:17;4.80;;;4.40;;
8636;SDS011;4356;49.068;8.658;2023-03-08T03:39:42;4.80;;;4.40;;
8636;SDS011;4356;49.068;8.658;2023-03-08T03:42:08;4.83;;;4.43;;
8636;SDS011;4356;49.068;8.658;2023-03-08T03:44:34;4.53;;;4.23;;
8636;SDS011;4356;49.068;8.658;2023-03-08T03:47:00;4.83;;;4.47;;
8636;SDS011;4356;49.068;8.658;2023-03-08T03:49:25;4.33;;;4.03;;
8636;SDS011;4356;49.068;8.658;2023-03-08T03:51:51;4.67;;;4.30;;
8636;SDS011;4356;49.068;8.658;2023-03-08T03:54:17;4.30;;;3.90;;
8636;SDS011;4356;49.068;8.658;2023-03-08T03:56:42;4.13;;;3.83;;
8636;SDS011;4356;49.068;8.658;2023-03-08T03:59:08;4.20;;;3.90;;
8636;SDS011;4356;49.068;8.658;2023-03-08T04:01:33;3.97;;;3.77;;
8636;SDS011;4356;49.068;8.658;2023-03-08T04:03:59;4.23;;;3.93;;
8636;SDS011;4356;49.068;8.658;2023-03-08T04:06:26;3.70;;;3.50;;
8636;SDS011;4356;49.068;8.658;2023-03-08T04:08:55;4.50;;;4.17;;
8636;SDS011;4356;49.068;8.658;2023-03-08T04:11:26;4.50;;;4.17;;
8636;SDS011;4356;49.068;8.658;2023-03-08T04:13:55;3.87;;;3.47;;
8636;SDS011;4356;49.068;8.658;2023-03-08T04:16:23;4.67;;;4.27;;
8636;SDS011;4356;49.068;8.658;2023-03-08T04:19:00;4.63;;;4.30;;
8636;SDS011;4356;49.068;8.658;2023-03-08T04:21:28;4.63;;;4.30;;
8636;SDS011;4356;49.068;8.658;2023-03-08T04:23:54;3.90;;;3.60;;
8636;SDS011;4356;49.068;8.658;2023-03-08T04:26:21;4.20;;;3.87;;
8636;SDS011;4356;49.068;8.658;2023-03-08T04:28:46;4.23;;;3.83;;
8636;SDS011;4356;49.068;8.658;2023-03-08T04:31:25;4.93;;;4.47;;
8636;SDS011;4356;49.068;8.658;2023-03-08T04:33:53;5.03;;;4.70;;
8636;SDS011;4356;49.068;8.658;2023-03-08T04:36:20;4.23;;;3.93;;
8636;SDS011;4356;49.068;8.658;2023-03-08T04:38:46;4.37;;;4.07;;
8636;SDS011;4356;49.068;8.658;2023-03-08T04:41:12;4.77;;;4.37;;
8636;SDS011;4356;49.068;8.658;2023-03-08T04:43:48;4.37;;;4.07;;
8636;SDS011;4356;49.068;8.658;2023-03-08T04:46:24;6.33;;;5.07;;
8636;SDS011;4356;49.068;8.658;2023-03-08T04:48:52;4.77;;;4.30;;
8636;SDS011;4356;49.068;8.658;2023-03-08T04:51:20;6.13;;;4.53;;
8636;SDS011;4356;49.068;8.658;2023-03-08T04:53:47;4.63;;;4.33;;
8636;SDS011;4356;49.068;8.658;2023-03-08T04:56:13;4.87;;;4.47;;
8636;SDS011;4356;49.068;8.658;2023-03-08T04:58:39;5.27;;;4.87;;
8636;SDS011;4356;49.068;8.658;2023-03-08T05:01:39;5.10;;;4.70;;
8636;SDS011;4356;49.068;8.658;2023-03-08T05:03:57;5.43;;;4.67;;
8636;SDS011;4356;49.068;8.658;2023-03-08T05:06:23;5.17;;;4.77;;
8636;SDS011;4356;49.068;8.658;2023-03-08T05:08:54;5.07;;;4.43;;
8636;SDS011;4356;49.068;8.658;2023-03-08T05:11:23;4.90;;;4.50;;
8636;SDS011;4356;49.068;8.658;2023-03-08T05:13:52;4.90;;;4.50;;
8636;SDS011;4356;49.068;8.658;2023-03-08T05:16:18;5.00;;;4.60;;
8636;SDS011;4356;49.068;8.658;2023-03-08T05:18:44;5.17;;;4.77;;
8636;SDS011;4356;49.068;8.658;2023-03-08T05:21:10;5.23;;;4.73;;
8636;SDS011;4356;49.068;8.658;2023-03-08T05:23:40;4.77;;;4.40;;
8636;SDS011;4356;49.068;8.658;2023-03-08T05:26:06;5.73;;;4.93;;
8636;SDS011;4356;49.068;8.658;2023-03-08T05:28:35;4.90;;;4.50;;
8636;SDS011;4356;49.068;8.658;2023-03-08T05:31:02;5.40;;;4.90;;
8636;SDS011;4356;49.068;8.658;2023-03-08T05:33:29;5.37;;;4.87;;
8636;SDS011;4356;49.068;8.658;2023-03-08T05:35:55;6.90;;;4.87;;
8636;SDS011;4356;49.068;8.658;2023-03-08T05:38:21;5.47;;;4.97;;
8636;SDS011;4356;49.068;8.658;2023-03-08T05:40:47;5.23;;;4.73;;
8636;SDS011;4356;49.068;8.658;2023-03-08T05:43:13;7.00;;;5.27;;
8636;SDS011;4356;49.068;8.658;2023-03-08T05:45:39;14.70;;;10.33;;
8636;SDS011;4356;49.068;8.658;2023-03-08T05:48:04;62.23;;;33.83;;
8636;SDS011;4356;49.068;8.658;2023-03-08T05:50:30;12.30;;;8.70;;
8636;SDS011;4356;49.068;8.658;2023-03-08T05:52:56;7.03;;;5.83;;
8636;SDS011;4356;49.068;8.658;2023-03-08T05:55:21;5.60;;;5.00;;
8636;SDS011;4356;49.068;8.658;2023-03-08T05:57:47;5.90;;;5.40;;
8636;SDS011;4356;49.068;8.658;2023-03-08T06:00:14;6.30;;;5.77;;
8636;SDS011;4356;49.068;8.658;2023-03-08T06:02:40;5.83;;;5.40;;
8636;SDS011;4356;49.068;8.658;2023-03-08T06:05:06;6.13;;;5.63;;
8636;SDS011;4356;49.068;8.658;2023-03-08T06:07:31;4.63;;;4.33;;
8636;SDS011;4356;49.068;8.658;2023-03-08T06:09:57;5.50;;;4.87;;
8636;SDS011;4356;49.068;8.658;2023-03-08T06:12:23;5.37;;;4.73;;
8636;SDS011;4356;49.068;8.658;2023-03-08T06:14:48;5.23;;;4.73;;
8636;SDS011;4356;49.068;8.658;2023-03-08T06:17:14;4.70;;;4.40;;
8636;SDS011;4356;49.068;8.658;2023-03-08T06:19:40;5.40;;;4.90;;
8636;SDS011;4356;49.068;8.658;2023-03-08T06:22:05;5.20;;;4.70;;
8636;SDS011;4356;49.068;8.658;2023-03-08T06:24:31;7.77;;;6.50;;
8636;SDS011;4356;49.068;8.658;2023-03-08T06:26:56;7.30;;;6.60;;
8636;SDS011;4356;49.068;8.658;2023-03-08T06:29:22;7.90;;;7.13;;
8636;SDS011;4356;49.068;8.658;2023-03-08T06:31:50;5.77;;;5.27;;
8636;SDS011;4356;49.068;8.658;2023-03-08T06:34:15;6.30;;;5.63;;
8636;SDS011;4356;49.068;8.658;2023-03-08T06:36:44;6.20;;;5.70;;
8636;SDS011;4356;49.068;8.658;2023-03-08T06:39:10;6.20;;;5.60;;
8636;SDS011;4356;49.068;8.658;2023-03-08T06:41:35;6.37;;;5.73;;
8636;SDS011;4356;49.068;8.658;2023-03-08T06:44:01;6.13;;;5.63;;
8636;SDS011;4356;49.068;8.658;2023-03-08T06:46:27;6.37;;;5.40;;
8636;SDS011;4356;49.068;8.658;2023-03-08T06:48:52;5.13;;;4.73;;
8636;SDS011;4356;49.068;8.658;2023-03-08T06:51:18;5.17;;;4.77;;
8636;SDS011;4356;49.068;8.658;2023-03-08T06:53:44;5.43;;;5.03;;
8636;SDS011;4356;49.068;8.658;2023-03-08T06:56:12;6.37;;;5.70;;
8636;SDS011;4356;49.068;8.658;2023-03-08T06:58:39;6.27;;;5.67;;
8636;SDS011;4356;49.068;8.658;2023-03-08T07:01:05;7.03;;;6.33;;
8636;SDS011;4356;49.068;8.658;2023-03-08T07:03:34;6.83;;;6.27;;
8636;SDS011;4356;49.068;8.658;2023-03-08T07:06:05;7.60;;;6.77;;
8636;SDS011;4356;49.068;8.658;2023-03-08T07:08:32;8.70;;;6.10;;
8636;SDS011;4356;49.068;8.658;2023-03-08T07:11:02;6.53;;;5.90;;
8636;SDS011;4356;49.068;8.658;2023-03-08T07:13:28;6.57;;;5.97;;
8636;SDS011;4356;49.068;8.658;2023-03-08T07:15:55;6.90;;;6.20;;
8636;SDS011;4356;49.068;8.658;2023-03-08T07:18:24;7.00;;;6.40;;
8636;SDS011;4356;49.068;8.658;2023-03-08T07:20:51;6.93;;;6.10;;
8636;SDS011;4356;49.068;8.658;2023-03-08T07:23:17;6.37;;;5.77;;
8636;SDS011;4356;49.068;8.658;2023-03-08T07:25:43;6.40;;;5.90;;
8636;SDS011;4356;49.068;8.658;2023-03-08T07:28:09;6.70;;;6.03;;
8636;SDS011;4356;49.068;8.658;2023-03-08T07:30:34;8.53;;;6.27;;
8636;SDS011;4356;49.068;8.658;2023-03-08T07:33:00;6.73;;;5.97;;
8636;SDS011;4356;49.068;8.658;2023-03-08T07:35:25;6.50;;;5.93;;
8636;SDS011;4356;49.068;8.658;2023-03-08T07:37:51;7.53;;;6.40;;
8636;SDS011;4356;49.068;8.658;2023-03-08T07:40:17;6.97;;;6.33;;
8636;SDS011;4356;49.068;8.658;2023-03-08T07:42:43;6.43;;;5.93;;
8636;SDS011;4356;49.068;8.658;2023-03-08T07:45:09;7.90;;;5.80;;
8636;SDS011;4356;49.068;8.658;2023-03-08T07:47:36;6.97;;;5.10;;
8636;SDS011;4356;49.068;8.658;2023-03-08T07:50:01;5.97;;;5.43;;
8636;SDS011;4356;49.068;8.658;2023-03-08T07:52:28;6.13;;;5.53;;
8636;SDS011;4356;49.068;8.658;2023-03-08T07:54:54;5.90;;;5.47;;
8636;SDS011;4356;49.068;8.658;2023-03-08T07:57:20;6.03;;;5.57;;
8636;SDS011;4356;49.068;8.658;2023-03-08T07:59:46;6.33;;;5.57;;
8636;SDS011;4356;49.068;8.658;2023-03-08T08:02:14;5.63;;;5.23;;
8636;SDS011;4356;49.068;8.658;2023-03-08T08:04:40;6.70;;;6.03;;
8636;SDS011;4356;49.068;8.658;2023-03-08T08:07:06;5.87;;;5.37;;
8636;SDS011;4356;49.068;8.658;2023-03-08T08:09:36;6.40;;;5.77;;
8636;SDS011;4356;49.068;8.658;2023-03-08T08:12:03;6.47;;;5.87;;
8636;SDS011;4356;49.068;8.658;2023-03-08T08:14:29;7.18;;;6.57;;
8636;SDS011;4356;49.068;8.658;2023-03-08T08:16:55;5.97;;;5.47;;
8636;SDS011;4356;49.068;8.658;2023-03-08T08:19:21;6.03;;;5.53;;
8636;SDS011;4356;49.068;8.658;2023-03-08T08:21:47;5.60;;;5.20;;
8636;SDS011;4356;49.068;8.658;2023-03-08T08:24:13;6.10;;;5.60;;
8636;SDS011;4356;49.068;8.658;2023-03-08T08:26:39;6.17;;;5.67;;
8636;SDS011;4356;49.068;8.658;2023-03-08T08:29:05;7.10;;;6.23;;
8636;SDS011;4356;49.068;8.658;2023-03-08T08:31:33;7.70;;;6.07;;
8636;SDS011;4356;49.068;8.658;2023-03-08T08:33:59;7.70;;;6.13;;
8636;SDS011;4356;49.068;8.658;2023-03-08T08:36:25;7.10;;;6.50;;
8636;SDS011;4356;49.068;8.658;2023-03-08T08:38:51;8.60;;;7.10;;
8636;SDS011;4356;49.068;8.658;2023-03-08T08:41:17;7.23;;;5.93;;
8636;SDS011;4356;49.068;8.658;2023-03-08T08:43:45;6.60;;;6.07;;
8636;SDS011;4356;49.068;8.658;2023-03-08T08:46:13;7.30;;;6.30;;
8636;SDS011;4356;49.068;8.658;2023-03-08T08:48:40;7.83;;;6.30;;
8636;SDS011;4356;49.068;8.658;2023-03-08T08:51:07;6.47;;;6.00;;
8636;SDS011;4356;49.068;8.658;2023-03-08T08:53:35;6.33;;;5.83;;
8636;SDS011;4356;49.068;8.658;2023-03-08T08:56:14;6.23;;;5.73;;
8636;SDS011;4356;49.068;8.658;2023-03-08T08:58:44;6.23;;;5.73;;
8636;SDS011;4356;49.068;8.658;2023-03-08T09:01:19;6.50;;;5.90;;
8636;SDS011;4356;49.068;8.658;2023-03-08T09:03:47;6.73;;;6.03;;
8636;SDS011;4356;49.068;8.658;2023-03-08T09:06:19;6.93;;;6.33;;
8636;SDS011;4356;49.068;8.658;2023-03-08T09:08:52;6.43;;;5.87;;
8636;SDS011;4356;49.068;8.658;2023-03-08T09:11:21;7.17;;;6.47;;
8636;SDS011;4356;49.068;8.658;2023-03-08T09:13:50;6.73;;;5.97;;
8636;SDS011;4356;49.068;8.658;2023-03-08T09:16:21;6.73;;;6.10;;
8636;SDS011;4356;49.068;8.658;2023-03-08T09:18:55;6.07;;;5.63;;
8636;SDS011;4356;49.068;8.658;2023-03-08T09:21:28;7.00;;;6.30;;
8636;SDS011;4356;49.068;8.658;2023-03-08T09:23:55;6.87;;;6.27;;
8636;SDS011;4356;49.068;8.658;2023-03-08T09:26:24;7.40;;;6.50;;
8636;SDS011;4356;49.068;8.658;2023-03-08T09:28:50;7.63;;;6.33;;
8636;SDS011;4356;49.068;8.658;2023-03-08T09:31:16;7.30;;;6.57;;
8636;SDS011;4356;49.068;8.658;2023-03-08T09:33:49;7.33;;;6.73;;
8636;SDS011;4356;49.068;8.658;2023-03-08T09:36:21;8.73;;;6.43;;
8636;SDS011;4356;49.068;8.658;2023-03-08T09:38:47;6.57;;;6.00;;
8636;SDS011;4356;49.068;8.658;2023-03-08T09:44:23;6.43;;;5.83;;
8636;SDS011;4356;49.068;8.658;2023-03-08T09:49:53;7.03;;;6.50;;
8636;SDS011;4356;49.068;8.658;2023-03-08T09:54:58;8.30;;;6.77;;
8636;SDS011;4356;49.068;8.658;2023-03-08T09:57:28;8.70;;;6.47;;
8636;SDS011;4356;49.068;8.658;2023-03-08T09:59:59;7.30;;;6.60;;
8636;SDS011;4356;49.068;8.658;2023-03-08T10:02:42;7.07;;;6.47;;
8636;SDS011;4356;49.068;8.658;2023-03-08T10:10:39;6.30;;;5.83;;
8636;SDS011;4356;49.068;8.658;2023-03-08T10:13:33;8.20;;;6.90;;
8636;SDS011;4356;49.068;8.658;2023-03-08T10:16:21;7.97;;;7.17;;
8636;SDS011;4356;49.068;8.658;2023-03-08T10:21:26;11.37;;;10.23;;
8636;SDS011;4356;49.068;8.658;2023-03-08T10:24:12;8.23;;;7.53;;
8636;SDS011;4356;49.068;8.658;2023-03-08T10:27:14;8.03;;;7.07;;
8636;SDS011;4356;49.068;8.658;2023-03-08T10:29:53;9.30;;;8.40;;
8636;SDS011;4356;49.068;8.658;2023-03-08T10:32:24;8.57;;;7.20;;
8636;SDS011;4356;49.068;8.658;2023-03-08T10:34:52;8.30;;;7.43;;
8636;SDS011;4356;49.068;8.658;2023-03-08T10:37:28;9.37;;;8.53;;
8636;SDS011;4356;49.068;8.658;2023-03-08T10:39:59;10.53;;;8.03;;
8636;SDS011;4356;49.068;8.658;2023-03-08T10:42:30;8.07;;;7.00;;
8636;SDS011;4356;49.068;8.658;2023-03-08T10:44:57;9.17;;;8.27;;
8636;SDS011;4356;49.068;8.658;2023-03-08T10:47:26;9.07;;;7.70;;
8636;SDS011;4356;49.068;8.658;2023-03-08T10:50:13;8.73;;;7.83;;
8636;SDS011;4356;49.068;8.658;2023-03-08T10:52:44;8.03;;;7.33;;
8636;SDS011;4356;49.068;8.658;2023-03-08T10:55:19;7.80;;;7.20;;
8636;SDS011;4356;49.068;8.658;2023-03-08T10:57:55;7.97;;;7.17;;
8636;SDS011;4356;49.068;8.658;2023-03-08T11:00:25;8.53;;;7.63;;
8636;SDS011;4356;49.068;8.658;2023-03-08T11:05:34;6.77;;;6.27;;
8636;SDS011;4356;49.068;8.658;2023-03-08T11:08:03;7.03;;;6.07;;
8636;SDS011;4356;49.068;8.658;2023-03-08T11:10:30;6.73;;;6.13;;
8636;SDS011;4356;49.068;8.658;2023-03-08T11:13:18;8.33;;;7.20;;
8636;SDS011;4356;49.068;8.658;2023-03-08T11:16:36;7.20;;;6.50;;
8636;SDS011;4356;49.068;8.658;2023-03-08T11:21:35;6.53;;;6.00;;
8636;SDS011;4356;49.068;8.658;2023-03-08T11:24:29;5.80;;;5.40;;
8636;SDS011;4356;49.068;8.658;2023-03-08T11:38:01;4.10;;;3.80;;
8636;SDS011;4356;49.068;8.658;2023-03-08T11:46:23;3.40;;;3.10;;
8636;SDS011;4356;49.068;8.658;2023-03-08T11:54:37;2.70;;;2.50;;
8636;SDS011;4356;49.068;8.658;2023-03-08T11:57:14;2.23;;;1.93;;
8636;SDS011;4356;49.068;8.658;2023-03-08T11:59:50;2.40;;;2.30;;
8636;SDS011;4356;49.068;8.658;2023-03-08T12:02:29;2.27;;;2.07;;
8636;SDS011;4356;49.068;8.658;2023-03-08T12:07:49;1.80;;;1.70;;
8636;SDS011;4356;49.068;8.658;2023-03-08T12:10:39;1.73;;;1.50;;
8636;SDS011;4356;49.068;8.658;2023-03-08T12:13:13;1.67;;;1.57;;
8636;SDS011;4356;49.068;8.658;2023-03-08T12:15:51;2.23;;;2.03;;
8636;SDS011;4356;49.068;8.658;2023-03-08T12:20:55;1.30;;;1.30;;
8636;SDS011;4356;49.068;8.658;2023-03-08T12:23:36;2.00;;;1.90;;
8636;SDS011;4356;49.068;8.658;2023-03-08T12:26:15;2.93;;;2.43;;
8636;SDS011;4356;49.068;8.658;2023-03-08T12:28:47;1.33;;;1.33;;
8636;SDS011;4356;49.068;8.658;2023-03-08T12:33:50;3.03;;;2.80;;
8636;SDS011;4356;49.068;8.658;2023-03-08T12:36:17;2.20;;;2.00;;
8636;SDS011;4356;49.068;8.658;2023-03-08T12:38:46;2.40;;;2.10;;
8636;SDS011;4356;49.068;8.658;2023-03-08T12:41:29;1.67;;;1.57;;
8636;SDS011;4356;49.068;8.658;2023-03-08T12:44:06;2.87;;;1.17;;
8636;SDS011;4356;49.068;8.658;2023-03-08T12:46:51;1.40;;;1.40;;
8636;SDS011;4356;49.068;8.658;2023-03-08T12:52:04;2.03;;;1.93;;
8636;SDS011;4356;49.068;8.658;2023-03-08T12:54:57;1.97;;;1.67;;
8636;SDS011;4356;49.068;8.658;2023-03-08T12:57:25;2.60;;;2.50;;
8636;SDS011;4356;49.068;8.658;2023-03-08T13:00:39;1.43;;;1.33;;
8636;SDS011;4356;49.068;8.658;2023-03-08T13:05:51;1.47;;;1.47;;
8636;SDS011;4356;49.068;8.658;2023-03-08T13:08:18;4.33;;;4.03;;
8636;SDS011;4356;49.068;8.658;2023-03-08T13:16:14;2.57;;;2.43;;
8636;SDS011;4356;49.068;8.658;2023-03-08T13:18:43;1.60;;;1.37;;
8636;SDS011;4356;49.068;8.658;2023-03-08T13:21:25;1.63;;;1.27;;
8636;SDS011;4356;49.068;8.658;2023-03-08T13:23:54;1.60;;;1.43;;
8636;SDS011;4356;49.068;8.658;2023-03-08T13:29:08;3.27;;;2.57;;
8636;SDS011;4356;49.068;8.658;2023-03-08T13:31:38;1.17;;;1.17;;
8636;SDS011;4356;49.068;8.658;2023-03-08T13:34:04;1.23;;;1.20;;
8636;SDS011;4356;49.068;8.658;2023-03-08T13:36:46;0.90;;;0.90;;
8636;SDS011;4356;49.068;8.658;2023-03-08T13:39:19;1.10;;;1.10;;
8636;SDS011;4356;49.068;8.658;2023-03-08T13:41:50;1.70;;;1.07;;
8636;SDS011;4356;49.068;8.658;2023-03-08T13:46:45;1.70;;;1.60;;
8636;SDS011;4356;49.068;8.658;2023-03-08T13:49:28;1.80;;;1.73;;
8636;SDS011;4356;49.068;8.658;2023-03-08T13:51:57;2.30;;;2.20;;
8636;SDS011;4356;49.068;8.658;2023-03-08T13:54:25;1.73;;;1.63;;
8636;SDS011;4356;49.068;8.658;2023-03-08T13:57:01;2.17;;;1.97;;
8636;SDS011;4356;49.068;8.658;2023-03-08T13:59:29;1.73;;;1.37;;
8636;SDS011;4356;49.068;8.658;2023-03-08T14:01:56;1.70;;;1.20;;
8636;SDS011;4356;49.068;8.658;2023-03-08T14:04:24;1.20;;;1.20;;
8636;SDS011;4356;49.068;8.658;2023-03-08T14:06:52;3.23;;;2.10;;
8636;SDS011;4356;49.068;8.658;2023-03-08T14:09:25;0.87;;;0.87;;
8636;SDS011;4356;49.068;8.658;2023-03-08T14:12:11;1.83;;;1.73;;
8636;SDS011;4356;49.068;8.658;2023-03-08T14:14:45;1.43;;;1.33;;
8636;SDS011;4356;49.068;8.658;2023-03-08T14:17:25;1.53;;;1.43;;
8636;SDS011;4356;49.068;8.658;2023-03-08T14:19:53;1.57;;;1.47;;
8636;SDS011;4356;49.068;8.658;2023-03-08T14:22:27;3.27;;;1.57;;
8636;SDS011;4356;49.068;8.658;2023-03-08T14:24:55;4.13;;;1.93;;
8636;SDS011;4356;49.068;8.658;2023-03-08T14:27:37;1.37;;;1.27;;
8636;SDS011;4356;49.068;8.658;2023-03-08T14:30:17;0.97;;;0.97;;
8636;SDS011;4356;49.068;8.658;2023-03-08T14:33:20;2.70;;;1.67;;
8636;SDS011;4356;49.068;8.658;2023-03-08T14:35:39;1.40;;;1.30;;
8636;SDS011;4356;49.068;8.658;2023-03-08T14:38:12;4.10;;;1.30;;
8636;SDS011;4356;49.068;8.658;2023-03-08T14:40:44;1.93;;;1.43;;
8636;SDS011;4356;49.068;8.658;2023-03-08T14:43:16;1.17;;;1.17;;
8636;SDS011;4356;49.068;8.658;2023-03-08T14:48:34;2.53;;;0.93;;
8636;SDS011;4356;49.068;8.658;2023-03-08T14:51:02;1.73;;;1.00;;
8636;SDS011;4356;49.068;8.658;2023-03-08T14:53:36;1.37;;;1.27;;
8636;SDS011;4356;49.068;8.658;2023-03-08T14:56:10;2.50;;;0.73;;
8636;SDS011;4356;49.068;8.658;2023-03-08T14:58:40;1.27;;;1.23;;
8636;SDS011;4356;49.068;8.658;2023-03-08T15:01:24;1.23;;;1.23;;
8636;SDS011;4356;49.068;8.658;2023-03-08T15:03:54;2.77;;;1.63;;
8636;SDS011;4356;49.068;8.658;2023-03-08T15:06:21;1.37;;;1.27;;
8636;SDS011;4356;49.068;8.658;2023-03-08T15:08:49;2.73;;;1.30;;
8636;SDS011;4356;49.068;8.658;2023-03-08T15:11:18;3.10;;;0.97;;
8636;SDS011;4356;49.068;8.658;2023-03-08T15:13:44;1.00;;;1.00;;
8636;SDS011;4356;49.068;8.658;2023-03-08T15:16:10;1.17;;;1.17;;
8636;SDS011;4356;49.068;8.658;2023-03-08T15:18:36;2.53;;;2.30;;
8636;SDS011;4356;49.068;8.658;2023-03-08T15:21:02;1.90;;;1.33;;
8636;SDS011;4356;49.068;8.658;2023-03-08T15:23:31;0.80;;;0.80;;
8636;SDS011;4356;49.068;8.658;2023-03-08T15:26:00;4.87;;;1.20;;
8636;SDS011;4356;49.068;8.658;2023-03-08T15:28:28;1.50;;;1.40;;
8636;SDS011;4356;49.068;8.658;2023-03-08T15:30:54;2.50;;;1.10;;
8636;SDS011;4356;49.068;8.658;2023-03-08T15:33:20;2.63;;;1.20;;
8636;SDS011;4356;49.068;8.658;2023-03-08T15:35:46;1.17;;;1.07;;
8636;SDS011;4356;49.068;8.658;2023-03-08T15:38:13;1.50;;;1.40;;
8636;SDS011;4356;49.068;8.658;2023-03-08T15:40:41;2.70;;;0.77;;
8636;SDS011;4356;49.068;8.658;2023-03-08T15:43:07;7.80;;;1.77;;
8636;SDS011;4356;49.068;8.658;2023-03-08T15:45:33;2.33;;;1.43;;
8636;SDS011;4356;49.068;8.658;2023-03-08T15:48:00;1.27;;;1.20;;
8636;SDS011;4356;49.068;8.658;2023-03-08T15:50:28;2.23;;;1.67;;
8636;SDS011;4356;49.068;8.658;2023-03-08T15:52:54;1.90;;;1.10;;
8636;SDS011;4356;49.068;8.658;2023-03-08T15:55:21;1.60;;;0.93;;
8636;SDS011;4356;49.068;8.658;2023-03-08T15:57:48;2.83;;;0.90;;
8636;SDS011;4356;49.068;8.658;2023-03-08T16:00:15;3.43;;;1.60;;
8636;SDS011;4356;49.068;8.658;2023-03-08T16:02:42;1.73;;;1.37;;
8636;SDS011;4356;49.068;8.658;2023-03-08T16:05:08;5.07;;;1.10;;
8636;SDS011;4356;49.068;8.658;2023-03-08T16:07:35;2.40;;;1.00;;
8636;SDS011;4356;49.068;8.658;2023-03-08T16:10:01;1.37;;;1.20;;
8636;SDS011;4356;49.068;8.658;2023-03-08T16:12:28;4.90;;;2.33;;
8636;SDS011;4356;49.068;8.658;2023-03-08T16:14:53;2.13;;;1.93;;
8636;SDS011;4356;49.068;8.658;2023-03-08T16:17:21;2.10;;;1.90;;
8636;SDS011;4356;49.068;8.658;2023-03-08T16:19:49;2.17;;;1.90;;
8636;SDS011;4356;49.068;8.658;2023-03-08T16:22:15;2.13;;;2.03;;
8636;SDS011;4356;49.068;8.658;2023-03-08T16:24:41;2.67;;;2.53;;
8636;SDS011;4356;49.068;8.658;2023-03-08T16:27:09;1.77;;;1.67;;
8636;SDS011;4356;49.068;8.658;2023-03-08T16:29:35;2.07;;;1.87;;
8636;SDS011;4356;49.068;8.658;2023-03-08T16:32:01;2.50;;;2.30;;
8636;SDS011;4356;49.068;8.658;2023-03-08T16:34:28;1.50;;;1.50;;
8636;SDS011;4356;49.068;8.658;2023-03-08T16:36:54;3.37;;;1.47;;
8636;SDS011;4356;49.068;8.658;2023-03-08T16:39:21;1.07;;;1.07;;
8636;SDS011;4356;49.068;8.658;2023-03-08T16:41:47;1.30;;;1.03;;